createdAt,value
2022-12-04T00:00:28.785Z,0.75
2022-12-04T00:01:30.473Z,0.75
2022-12-04T00:02:32.252Z,0.74
2022-12-04T00:03:33.974Z,0.75
2022-12-04T00:04:35.781Z,0.75
2022-12-04T00:05:37.447Z,0.74
2022-12-04T00:06:39.152Z,0.74
2022-12-04T00:07:40.916Z,0.74
2022-12-04T00:08:42.620Z,0.75
2022-12-04T00:09:44.334Z,0.74
2022-12-04T00:10:46.099Z,0.74
2022-12-04T00:11:47.819Z,0.74
2022-12-04T00:12:49.567Z,0.75
2022-12-04T00:13:51.288Z,0.74
2022-12-04T00:15:23.854Z,0.74
2022-12-04T00:15:54.852Z,0.74
2022-12-04T00:16:56.612Z,0.75
2022-12-04T00:17:58.249Z,0.73
2022-12-04T00:18:59.969Z,0.74
2022-12-04T00:20:01.683Z,0.73
2022-12-04T00:21:03.435Z,0.73
2022-12-04T00:22:05.147Z,0.72
2022-12-04T00:23:06.899Z,0.72
2022-12-04T00:24:08.632Z,0.71
2022-12-04T00:25:10.357Z,0.7
2022-12-04T00:26:12.108Z,0.72
2022-12-04T00:27:13.834Z,0.71
2022-12-04T00:28:15.568Z,0.72
2022-12-04T00:29:17.310Z,0.73
2022-12-04T00:30:19.024Z,0.72
2022-12-04T00:31:20.920Z,0.72
2022-12-04T00:32:22.513Z,0.72
2022-12-04T00:33:24.225Z,0.72
2022-12-04T00:34:26.015Z,0.71
2022-12-04T00:35:27.674Z,0.71
2022-12-04T00:36:29.404Z,0.71
2022-12-04T00:37:31.108Z,0.71
2022-12-04T00:38:32.843Z,0.71
2022-12-04T00:39:34.601Z,0.71
2022-12-04T00:40:36.314Z,0.71
2022-12-04T00:41:38.061Z,0.7
2022-12-04T00:42:39.791Z,0.71
2022-12-04T00:43:41.510Z,0.7
2022-12-04T00:44:43.260Z,0.71
2022-12-04T00:45:45.025Z,0.71
2022-12-04T00:46:46.725Z,0.71
2022-12-04T00:47:48.445Z,0.72
2022-12-04T00:48:50.174Z,0.71
2022-12-04T00:49:51.982Z,0.71
2022-12-04T00:50:53.657Z,0.69
2022-12-04T00:51:55.415Z,0.7
2022-12-04T00:52:57.110Z,0.69
2022-12-04T00:53:58.889Z,0.71
2022-12-04T00:55:00.577Z,0.7
2022-12-04T00:56:02.337Z,0.71
2022-12-04T00:57:04.063Z,0.69
2022-12-04T00:58:05.769Z,0.69
2022-12-04T00:59:07.523Z,0.69
2022-12-04T01:00:09.254Z,0.7
2022-12-04T01:01:11.085Z,0.69
2022-12-04T01:02:12.735Z,0.7
2022-12-04T01:03:14.532Z,0.7
2022-12-04T01:04:16.186Z,0.69
2022-12-04T01:05:17.912Z,0.69
2022-12-04T01:06:19.647Z,0.69
2022-12-04T01:07:21.377Z,0.7
2022-12-04T01:08:23.108Z,0.69
2022-12-04T01:09:24.850Z,0.7
2022-12-04T01:10:26.574Z,0.68
2022-12-04T01:11:28.312Z,0.69
2022-12-04T01:12:30.058Z,0.7
2022-12-04T01:13:31.791Z,0.7
2022-12-04T01:14:33.516Z,0.7
2022-12-04T01:15:35.314Z,0.7
2022-12-04T01:16:37.043Z,0.69
2022-12-04T01:17:38.773Z,0.69
2022-12-04T01:18:40.454Z,0.69
2022-12-04T01:19:42.176Z,0.7
2022-12-04T01:20:43.915Z,0.68
2022-12-04T01:21:45.636Z,0.69
2022-12-04T01:22:47.417Z,0.7
2022-12-04T01:23:49.109Z,0.69
2022-12-04T01:24:50.858Z,0.69
2022-12-04T01:25:52.592Z,0.67
2022-12-04T01:26:54.323Z,0.68
2022-12-04T01:27:56.060Z,0.69
2022-12-04T01:28:57.807Z,0.69
2022-12-04T01:29:59.525Z,0.67
2022-12-04T01:31:01.270Z,0.67
2022-12-04T01:32:03.049Z,0.67
2022-12-04T01:33:04.721Z,0.68
2022-12-04T01:34:06.467Z,0.68
2022-12-04T01:35:08.183Z,0.68
2022-12-04T01:36:09.905Z,0.67
2022-12-04T01:37:11.638Z,0.68
2022-12-04T01:38:13.404Z,0.67
2022-12-04T01:39:15.122Z,0.67
2022-12-04T01:40:16.846Z,0.68
2022-12-04T01:41:18.579Z,0.68
2022-12-04T01:42:20.337Z,0.67
2022-12-04T01:43:22.065Z,0.67
2022-12-04T01:44:23.778Z,0.66
2022-12-04T01:45:25.611Z,0.67
2022-12-04T01:46:27.336Z,0.67
2022-12-04T01:47:28.983Z,0.66
2022-12-04T01:48:30.755Z,0.65
2022-12-04T01:49:32.457Z,0.66
2022-12-04T01:50:34.193Z,0.65
2022-12-04T01:51:35.904Z,0.65
2022-12-04T01:52:37.661Z,0.66
2022-12-04T01:53:39.382Z,0.65
2022-12-04T01:54:41.124Z,0.64
2022-12-04T01:55:42.848Z,0.63
2022-12-04T01:56:44.575Z,0.63
2022-12-04T01:57:46.325Z,0.65
2022-12-04T01:58:48.054Z,0.65
2022-12-04T01:59:49.788Z,0.64
2022-12-04T02:00:51.806Z,0.62
2022-12-04T02:01:53.345Z,0.64
2022-12-04T02:02:55.015Z,0.65
2022-12-04T02:03:56.734Z,0.63
2022-12-04T02:04:58.449Z,0.64
2022-12-04T02:06:00.192Z,0.64
2022-12-04T02:07:01.917Z,0.65
2022-12-04T02:08:03.715Z,0.65
2022-12-04T02:09:05.408Z,0.65
2022-12-04T02:10:07.128Z,0.65
2022-12-04T02:11:08.847Z,0.64
2022-12-04T02:12:10.583Z,0.63
2022-12-04T02:13:12.315Z,0.64
2022-12-04T02:14:14.059Z,0.64
2022-12-04T02:15:15.781Z,0.64
2022-12-04T02:16:17.617Z,0.64
2022-12-04T02:17:19.259Z,0.63
2022-12-04T02:18:20.975Z,0.64
2022-12-04T02:19:22.733Z,0.64
2022-12-04T02:20:24.458Z,0.64
2022-12-04T02:21:26.185Z,0.64
2022-12-04T02:22:27.923Z,0.63
2022-12-04T02:23:29.647Z,0.62
2022-12-04T02:24:31.420Z,0.64
2022-12-04T02:25:33.129Z,0.64
2022-12-04T02:26:34.853Z,0.63
2022-12-04T02:27:36.597Z,0.63
2022-12-04T02:28:38.318Z,0.65
2022-12-04T02:29:40.059Z,0.65
2022-12-04T02:30:41.842Z,0.64
2022-12-04T02:31:43.508Z,0.65
2022-12-04T02:32:45.254Z,0.64
2022-12-04T02:33:46.981Z,0.65
2022-12-04T02:34:48.711Z,0.64
2022-12-04T02:35:50.451Z,0.63
2022-12-04T02:36:52.183Z,0.64
2022-12-04T02:37:53.931Z,0.63
2022-12-04T02:38:55.665Z,0.64
2022-12-04T02:39:57.663Z,0.62
2022-12-04T02:40:59.112Z,0.63
2022-12-04T02:42:00.850Z,0.62
2022-12-04T02:43:02.606Z,0.62
2022-12-04T02:44:04.308Z,0.63
2022-12-04T02:45:06.056Z,0.62
2022-12-04T02:46:07.843Z,0.63
2022-12-04T02:47:09.521Z,0.61
2022-12-04T02:48:11.253Z,0.6
2022-12-04T02:49:12.986Z,0.6
2022-12-04T02:50:14.735Z,0.61
2022-12-04T02:51:16.454Z,0.6
2022-12-04T02:52:18.189Z,0.6
2022-12-04T02:53:19.914Z,0.6
2022-12-04T02:54:21.676Z,0.61
2022-12-04T02:55:23.406Z,0.6
2022-12-04T02:56:25.113Z,0.6
2022-12-04T02:57:26.857Z,0.58
2022-12-04T02:58:28.607Z,0.6
2022-12-04T02:59:30.338Z,0.59
2022-12-04T03:00:32.039Z,0.58
2022-12-04T03:01:33.936Z,0.59
2022-12-04T03:02:35.683Z,0.58
2022-12-04T03:03:37.258Z,0.58
2022-12-04T03:04:39.008Z,0.59
2022-12-04T03:05:40.723Z,0.58
2022-12-04T03:06:42.450Z,0.58
2022-12-04T03:07:44.280Z,0.58
2022-12-04T03:08:45.914Z,0.56
2022-12-04T03:09:47.666Z,0.58
2022-12-04T03:10:49.392Z,0.57
2022-12-04T03:11:51.099Z,0.57
2022-12-04T03:12:52.850Z,0.57
2022-12-04T03:13:54.584Z,0.55
2022-12-04T03:14:56.298Z,0.55
2022-12-04T03:15:58.055Z,0.55
2022-12-04T03:16:59.872Z,0.55
2022-12-04T03:18:01.502Z,0.55
2022-12-04T03:19:03.259Z,0.55
2022-12-04T03:20:04.983Z,0.56
2022-12-04T03:21:06.716Z,0.56
2022-12-04T03:22:08.453Z,0.55
2022-12-04T03:23:10.173Z,0.55
2022-12-04T03:24:11.942Z,0.55
2022-12-04T03:25:13.656Z,0.55
2022-12-04T03:26:15.397Z,0.55
2022-12-04T03:27:17.121Z,0.55
2022-12-04T03:28:18.871Z,0.55
2022-12-04T03:29:20.622Z,0.55
2022-12-04T03:30:22.334Z,0.55
2022-12-04T03:31:24.149Z,0.54
2022-12-04T03:32:25.803Z,0.55
2022-12-04T03:33:27.536Z,0.55
2022-12-04T03:34:29.278Z,0.55
2022-12-04T03:35:31.002Z,0.54
2022-12-04T03:36:32.733Z,0.54
2022-12-04T03:37:34.448Z,0.55
2022-12-04T03:38:36.185Z,0.54
2022-12-04T03:39:37.932Z,0.54
2022-12-04T03:40:39.657Z,0.55
2022-12-04T03:41:45.162Z,0.55
2022-12-04T03:42:43.127Z,0.55
2022-12-04T03:43:44.858Z,0.55
2022-12-04T03:44:46.600Z,0.55
2022-12-04T03:45:48.415Z,0.54
2022-12-04T03:46:50.055Z,0.53
2022-12-04T03:47:51.787Z,0.54
2022-12-04T03:48:53.533Z,0.53
2022-12-04T03:49:55.698Z,0.52
2022-12-04T03:50:57.022Z,0.52
2022-12-04T03:51:58.703Z,0.53
2022-12-04T03:53:00.453Z,0.53
2022-12-04T03:54:02.186Z,0.53
2022-12-04T03:55:03.917Z,0.53
2022-12-04T03:56:05.632Z,0.51
2022-12-04T03:57:07.394Z,0.52
2022-12-04T03:58:09.106Z,0.52
2022-12-04T03:59:10.856Z,0.52
2022-12-04T04:00:12.589Z,0.53
2022-12-04T04:01:14.391Z,0.53
2022-12-04T04:02:16.168Z,0.53
2022-12-04T04:03:17.813Z,0.51
2022-12-04T04:04:19.556Z,0.51
2022-12-04T04:05:21.238Z,0.51
2022-12-04T04:06:22.984Z,0.52
2022-12-04T04:07:24.763Z,0.51
2022-12-04T04:08:26.650Z,0.51
2022-12-04T04:09:28.200Z,0.52
2022-12-04T04:10:29.910Z,0.52
2022-12-04T04:11:31.650Z,0.51
2022-12-04T04:12:33.388Z,0.51
2022-12-04T04:13:35.116Z,0.5
2022-12-04T04:14:36.861Z,0.52
2022-12-04T04:15:38.653Z,0.51
2022-12-04T04:16:40.311Z,0.5
2022-12-04T04:17:42.070Z,0.51
2022-12-04T04:18:43.792Z,0.51
2022-12-04T04:19:45.536Z,0.51
2022-12-04T04:20:47.259Z,0.51
2022-12-04T04:21:48.984Z,0.51
2022-12-04T04:22:54.608Z,0.51
2022-12-04T04:23:52.486Z,0.51
2022-12-04T04:24:54.197Z,0.51
2022-12-04T04:25:55.922Z,0.52
2022-12-04T04:26:57.651Z,0.51
2022-12-04T04:27:59.379Z,0.52
2022-12-04T04:29:01.122Z,0.52
2022-12-04T04:30:02.843Z,0.51
2022-12-04T04:31:04.628Z,0.53
2022-12-04T04:32:06.324Z,0.52
2022-12-04T04:33:08.060Z,0.52
2022-12-04T04:34:09.804Z,0.52
2022-12-04T04:35:11.533Z,0.52
2022-12-04T04:36:13.268Z,0.53
2022-12-04T04:37:14.995Z,0.52
2022-12-04T04:38:16.716Z,0.53
2022-12-04T04:39:18.464Z,0.51
2022-12-04T04:40:20.227Z,0.53
2022-12-04T04:41:21.948Z,0.52
2022-12-04T04:42:23.653Z,0.52
2022-12-04T04:43:25.386Z,0.53
2022-12-04T04:44:27.141Z,0.53
2022-12-04T04:45:28.870Z,0.54
2022-12-04T04:46:30.651Z,0.53
2022-12-04T04:47:32.353Z,0.53
2022-12-04T04:48:34.057Z,0.54
2022-12-04T04:49:35.804Z,0.54
2022-12-04T04:50:37.514Z,0.54
2022-12-04T04:51:39.270Z,0.53
2022-12-04T04:52:40.997Z,0.53
2022-12-04T04:53:42.739Z,0.53
2022-12-04T04:54:44.465Z,0.53
2022-12-04T04:55:46.178Z,0.53
2022-12-04T04:56:47.942Z,0.54
2022-12-04T04:57:49.645Z,0.53
2022-12-04T04:58:51.391Z,0.53
2022-12-04T04:59:53.530Z,0.54
2022-12-04T05:00:54.855Z,0.53
2022-12-04T05:01:56.654Z,0.54
2022-12-04T05:02:58.426Z,0.54
2022-12-04T05:04:00.071Z,0.54
2022-12-04T05:05:01.776Z,0.54
2022-12-04T05:06:03.546Z,0.55
2022-12-04T05:07:05.280Z,0.54
2022-12-04T05:08:07.093Z,0.54
2022-12-04T05:09:08.774Z,0.54
2022-12-04T05:10:10.456Z,0.55
2022-12-04T05:11:12.218Z,0.55
2022-12-04T05:12:13.935Z,0.54
2022-12-04T05:13:15.672Z,0.54
2022-12-04T05:14:17.417Z,0.54
2022-12-04T05:15:19.127Z,0.53
2022-12-04T05:16:20.971Z,0.54
2022-12-04T05:17:22.581Z,0.54
2022-12-04T05:18:24.323Z,0.54
2022-12-04T05:19:26.093Z,0.54
2022-12-04T05:20:27.799Z,0.54
2022-12-04T05:21:29.526Z,0.54
2022-12-04T05:22:31.367Z,0.54
2022-12-04T05:23:32.976Z,0.55
2022-12-04T05:24:34.753Z,0.54
2022-12-04T05:25:36.466Z,0.54
2022-12-04T05:26:38.185Z,0.54
2022-12-04T05:27:39.935Z,0.54
2022-12-04T05:28:41.661Z,0.54
2022-12-04T05:29:43.407Z,0.54
2022-12-04T05:30:45.142Z,0.54
2022-12-04T05:31:46.971Z,0.54
2022-12-04T05:32:48.608Z,0.54
2022-12-04T05:33:50.314Z,0.55
2022-12-04T05:34:52.075Z,0.54
2022-12-04T05:35:53.827Z,0.54
2022-12-04T05:36:55.537Z,0.54
2022-12-04T05:37:57.264Z,0.54
2022-12-04T05:38:59.022Z,0.54
2022-12-04T05:40:00.740Z,0.53
2022-12-04T05:41:02.470Z,0.53
2022-12-04T05:42:04.197Z,0.54
2022-12-04T05:43:05.949Z,0.53
2022-12-04T05:44:07.687Z,0.54
2022-12-04T05:45:09.400Z,0.53
2022-12-04T05:46:11.225Z,0.53
2022-12-04T05:47:12.854Z,0.53
2022-12-04T05:48:14.581Z,0.53
2022-12-04T05:49:16.350Z,0.53
2022-12-04T05:50:18.053Z,0.52
2022-12-04T05:51:19.807Z,0.52
2022-12-04T05:52:21.547Z,0.52
2022-12-04T05:53:23.289Z,0.51
2022-12-04T05:54:25.024Z,0.51
2022-12-04T05:55:26.772Z,0.51
2022-12-04T05:56:28.478Z,0.51
2022-12-04T05:57:30.318Z,0.51
2022-12-04T05:58:31.942Z,0.52
2022-12-04T05:59:33.678Z,0.51
2022-12-04T06:00:35.408Z,0.51
2022-12-04T06:01:37.214Z,0.52
2022-12-04T06:02:39.058Z,0.52
2022-12-04T06:03:40.605Z,0.52
2022-12-04T06:04:42.340Z,0.51
2022-12-04T06:05:44.086Z,0.52
2022-12-04T06:06:45.827Z,0.52
2022-12-04T06:07:47.615Z,0.52
2022-12-04T06:08:49.272Z,0.52
2022-12-04T06:09:51.015Z,0.53
2022-12-04T06:10:52.744Z,0.52
2022-12-04T06:11:54.479Z,0.53
2022-12-04T06:12:56.228Z,0.53
2022-12-04T06:13:57.964Z,0.54
2022-12-04T06:14:59.677Z,0.53
2022-12-04T06:16:01.482Z,0.53
2022-12-04T06:17:03.129Z,0.53
2022-12-04T06:18:04.860Z,0.54
2022-12-04T06:19:06.636Z,0.53
2022-12-04T06:20:11.420Z,0.53
2022-12-04T06:21:10.093Z,0.54
2022-12-04T06:22:11.821Z,0.54
2022-12-04T06:23:13.551Z,0.55
2022-12-04T06:24:15.291Z,0.55
2022-12-04T06:25:17.003Z,0.55
2022-12-04T06:26:18.729Z,0.54
2022-12-04T06:27:28.691Z,0.56
2022-12-04T06:28:22.219Z,0.55
2022-12-04T06:29:23.961Z,0.55
2022-12-04T06:30:25.669Z,0.55
2022-12-04T06:31:27.461Z,0.55
2022-12-04T06:32:29.145Z,0.54
2022-12-04T06:33:30.925Z,0.55
2022-12-04T06:34:32.642Z,0.54
2022-12-04T06:35:34.346Z,0.54
2022-12-04T06:36:36.081Z,0.55
2022-12-04T06:37:37.806Z,0.54
2022-12-04T06:38:39.556Z,0.55
2022-12-04T06:39:41.290Z,0.55
2022-12-04T06:40:43.015Z,0.55
2022-12-04T06:41:44.754Z,0.55
2022-12-04T06:42:46.546Z,0.55
2022-12-04T06:43:48.221Z,0.55
2022-12-04T06:44:49.984Z,0.54
2022-12-04T06:45:51.740Z,0.54
2022-12-04T06:46:54.954Z,0.54
2022-12-04T06:47:55.161Z,0.55
2022-12-04T06:48:56.910Z,0.55
2022-12-04T06:49:58.995Z,0.55
2022-12-04T06:51:00.343Z,0.55
2022-12-04T06:52:02.076Z,0.54
2022-12-04T06:53:08.312Z,0.55
2022-12-04T06:54:05.559Z,0.54
2022-12-04T06:55:07.290Z,0.56
2022-12-04T06:56:09.023Z,0.55
2022-12-04T06:57:10.748Z,0.55
2022-12-04T06:58:12.502Z,0.55
2022-12-04T06:59:14.230Z,0.56
2022-12-04T07:00:15.959Z,0.56
2022-12-04T07:01:17.758Z,0.56
2022-12-04T07:02:19.492Z,0.57
2022-12-04T07:03:21.147Z,0.56
2022-12-04T07:04:22.901Z,0.57
2022-12-04T07:05:24.629Z,0.56
2022-12-04T07:06:26.362Z,0.58
2022-12-04T07:07:28.182Z,0.58
2022-12-04T07:08:29.838Z,0.58
2022-12-04T07:09:31.585Z,0.57
2022-12-04T07:10:33.295Z,0.58
2022-12-04T07:11:35.039Z,0.57
2022-12-04T07:12:36.756Z,0.58
2022-12-04T07:13:38.498Z,0.58
2022-12-04T07:14:40.255Z,0.58
2022-12-04T07:15:41.999Z,0.59
2022-12-04T07:16:43.775Z,0.59
2022-12-04T07:17:45.435Z,0.58
2022-12-04T07:18:47.165Z,0.59
2022-12-04T07:19:48.912Z,0.59
2022-12-04T07:20:50.632Z,0.58
2022-12-04T07:21:52.367Z,0.59
2022-12-04T07:22:54.101Z,0.59
2022-12-04T07:23:55.835Z,0.59
2022-12-04T07:24:57.585Z,0.59
2022-12-04T07:25:59.291Z,0.6
2022-12-04T07:27:01.030Z,0.59
2022-12-04T07:28:02.759Z,0.59
2022-12-04T07:29:04.516Z,0.59
2022-12-04T07:30:08.886Z,0.6
2022-12-04T07:31:07.942Z,0.59
2022-12-04T07:32:09.712Z,0.6
2022-12-04T07:33:11.422Z,0.61
2022-12-04T07:34:13.162Z,0.61
2022-12-04T07:35:14.888Z,0.61
2022-12-04T07:36:16.624Z,0.62
2022-12-04T07:37:18.365Z,0.62
2022-12-04T07:38:20.097Z,0.63
2022-12-04T07:39:21.846Z,0.63
2022-12-04T07:40:23.548Z,0.63
2022-12-04T07:41:25.307Z,0.63
2022-12-04T07:42:27.035Z,0.64
2022-12-04T07:43:28.815Z,0.63
2022-12-04T07:44:30.496Z,0.65
2022-12-04T07:45:32.358Z,0.65
2022-12-04T07:46:33.996Z,0.65
2022-12-04T07:47:35.696Z,0.65
2022-12-04T07:48:37.418Z,0.66
2022-12-04T07:49:39.182Z,0.66
2022-12-04T07:50:40.892Z,0.67
2022-12-04T07:51:45.763Z,0.67
2022-12-04T07:52:47.490Z,0.67
2022-12-04T07:53:49.230Z,0.68
2022-12-04T07:54:50.973Z,0.69
2022-12-04T07:55:52.691Z,0.67
2022-12-04T07:56:54.430Z,0.68
2022-12-04T07:57:56.182Z,0.7
2022-12-04T07:58:57.910Z,0.71
2022-12-04T07:59:59.632Z,0.71
2022-12-04T08:01:01.440Z,0.7
2022-12-04T08:02:03.112Z,0.71
2022-12-04T08:03:04.857Z,0.72
2022-12-04T08:04:06.628Z,0.72
2022-12-04T08:05:08.323Z,0.72
2022-12-04T08:06:10.035Z,0.74
2022-12-04T08:07:11.768Z,0.73
2022-12-04T08:08:13.595Z,0.74
2022-12-04T08:09:15.246Z,0.75
2022-12-04T08:10:16.971Z,0.74
2022-12-04T08:11:18.717Z,0.74
2022-12-04T08:12:20.437Z,0.76
2022-12-04T08:13:22.169Z,0.77
2022-12-04T08:14:23.922Z,0.76
2022-12-04T08:15:25.668Z,0.76
2022-12-04T08:16:27.405Z,0.77
2022-12-04T08:17:29.241Z,0.77
2022-12-04T08:18:30.845Z,0.78
2022-12-04T08:19:32.591Z,0.77
2022-12-04T08:20:34.323Z,0.78
2022-12-04T08:21:36.042Z,0.78
2022-12-04T08:22:37.786Z,0.79
2022-12-04T08:23:39.511Z,0.79
2022-12-04T08:24:41.251Z,0.8
2022-12-04T08:25:43.002Z,0.8
2022-12-04T08:26:44.713Z,0.81
2022-12-04T08:27:47.672Z,0.8
2022-12-04T08:28:48.186Z,0.79
2022-12-04T08:29:49.918Z,0.8
2022-12-04T08:30:51.714Z,0.79
2022-12-04T08:31:53.390Z,0.81
2022-12-04T08:32:55.121Z,0.82
2022-12-04T08:33:56.853Z,0.81
2022-12-04T08:34:58.598Z,0.82
2022-12-04T08:36:00.311Z,0.83
2022-12-04T08:37:02.047Z,0.83
2022-12-04T08:38:03.791Z,0.83
2022-12-04T08:39:05.520Z,0.82
2022-12-04T08:40:07.263Z,0.83
2022-12-04T08:41:08.979Z,0.83
2022-12-04T08:42:10.716Z,0.83
2022-12-04T08:43:12.454Z,0.85
2022-12-04T08:44:14.189Z,0.84
2022-12-04T08:45:15.930Z,0.84
2022-12-04T08:46:17.818Z,0.84
2022-12-04T08:47:19.414Z,0.84
2022-12-04T08:48:21.122Z,0.85
2022-12-04T08:49:22.859Z,0.86
2022-12-04T08:50:24.606Z,0.87
2022-12-04T08:51:26.322Z,0.87
2022-12-04T08:52:28.061Z,0.86
2022-12-04T08:53:29.790Z,0.87
2022-12-04T08:54:35.933Z,0.88
2022-12-04T08:55:33.254Z,0.88
2022-12-04T08:56:34.987Z,0.88
2022-12-04T09:02:36.295Z,0.91
2022-12-04T09:03:38.031Z,0.92
2022-12-04T09:04:39.805Z,0.93
2022-12-04T09:05:41.506Z,0.93
2022-12-04T09:06:43.217Z,0.94
2022-12-04T09:07:45.000Z,0.95
2022-12-04T09:08:47.910Z,0.94
2022-12-04T09:09:48.681Z,0.95
2022-12-04T09:10:50.166Z,0.97
2022-12-04T09:11:51.909Z,0.98
2022-12-04T09:12:53.616Z,0.98
2022-12-04T09:13:56.411Z,0.98
2022-12-04T09:14:57.100Z,0.98
2022-12-04T09:15:58.933Z,0.99
2022-12-04T09:17:00.574Z,0.99
2022-12-04T09:18:02.296Z,1
2022-12-04T09:19:04.028Z,1.01
2022-12-04T09:20:06.019Z,1.02
2022-12-04T09:21:07.489Z,1.03
2022-12-04T09:22:09.238Z,1.02
2022-12-04T09:23:10.962Z,1.03
2022-12-04T09:24:12.684Z,1.05
2022-12-04T09:25:14.409Z,1.04
2022-12-04T09:26:16.172Z,1.04
2022-12-04T09:27:17.903Z,1.05
2022-12-04T09:28:20.718Z,1.06
2022-12-04T09:29:25.929Z,1.06
2022-12-04T09:30:28.247Z,1.07
2022-12-04T09:31:30.096Z,1.08
2022-12-04T09:32:31.713Z,1.08
2022-12-04T09:33:33.426Z,1.09
2022-12-04T09:34:35.169Z,1.1
2022-12-04T09:35:36.902Z,1.11
2022-12-04T09:36:38.642Z,1.11
2022-12-04T09:37:40.378Z,1.12
2022-12-04T09:38:42.086Z,1.13
2022-12-04T09:39:43.858Z,1.14
2022-12-04T09:40:45.564Z,1.14
2022-12-04T09:41:47.299Z,1.14
2022-12-04T09:42:49.023Z,1.15
2022-12-04T09:43:50.778Z,1.17
2022-12-04T09:44:52.516Z,1.17
2022-12-04T09:45:54.354Z,1.19
2022-12-04T09:46:56.042Z,1.18
2022-12-04T09:47:57.697Z,1.21
2022-12-04T09:48:59.453Z,1.21
2022-12-04T09:50:01.179Z,1.23
2022-12-04T09:51:02.898Z,1.22
2022-12-04T09:52:04.628Z,1.23
2022-12-04T09:53:06.368Z,1.23
2022-12-04T09:54:09.704Z,1.25
2022-12-04T09:55:09.878Z,1.25
2022-12-04T09:56:11.591Z,1.27
2022-12-04T09:57:13.334Z,1.28
2022-12-04T09:58:15.063Z,1.29
2022-12-04T09:59:16.765Z,1.3
2022-12-04T10:00:18.527Z,1.31
2022-12-04T10:01:20.245Z,1.32
2022-12-04T10:02:22.041Z,1.32
2022-12-04T10:03:23.820Z,1.33
2022-12-04T10:04:25.513Z,1.34
2022-12-04T10:05:27.177Z,1.35
2022-12-04T10:06:28.917Z,1.36
2022-12-04T10:07:30.716Z,1.36
2022-12-04T10:08:32.376Z,1.36
2022-12-04T10:09:35.516Z,1.36
2022-12-04T10:10:35.851Z,1.36
2022-12-04T10:11:37.562Z,1.37
2022-12-04T10:12:39.257Z,1.38
2022-12-04T10:13:40.995Z,1.38
2022-12-04T10:14:42.720Z,1.38
2022-12-04T10:15:44.464Z,1.39
2022-12-04T10:16:46.184Z,1.39
2022-12-04T10:17:47.910Z,1.4
2022-12-04T10:18:49.622Z,1.41
2022-12-04T10:19:51.408Z,1.4
2022-12-04T10:20:53.108Z,1.4
2022-12-04T10:21:54.837Z,1.4
2022-12-04T10:22:56.575Z,1.39
2022-12-04T10:23:58.308Z,1.4
2022-12-04T10:25:00.042Z,1.41
2022-12-04T10:26:01.769Z,1.41
2022-12-04T10:27:03.493Z,1.41
2022-12-04T10:28:05.260Z,1.39
2022-12-04T10:29:06.967Z,1.39
2022-12-04T10:30:08.717Z,1.4
2022-12-04T10:31:10.460Z,1.4
2022-12-04T10:32:12.185Z,1.41
2022-12-04T10:33:13.894Z,1.4
2022-12-04T10:34:15.640Z,1.41
2022-12-04T10:35:17.367Z,1.4
2022-12-04T10:36:19.102Z,1.4
2022-12-04T10:37:20.830Z,1.4
2022-12-04T10:38:22.595Z,1.4
2022-12-04T10:39:24.383Z,1.41
2022-12-04T10:40:26.038Z,1.42
2022-12-04T10:41:27.822Z,1.42
2022-12-04T10:42:29.496Z,1.41
2022-12-04T10:43:31.242Z,1.42
2022-12-04T10:44:32.984Z,1.44
2022-12-04T10:45:34.720Z,1.43
2022-12-04T10:46:36.668Z,1.43
2022-12-04T10:47:38.167Z,1.44
2022-12-04T10:48:39.894Z,1.45
2022-12-04T10:49:41.648Z,1.47
2022-12-04T10:50:43.367Z,1.46
2022-12-04T10:51:45.109Z,1.46
2022-12-04T10:52:46.830Z,1.47
2022-12-04T10:53:48.564Z,1.48
2022-12-04T10:54:54.415Z,1.49
2022-12-04T10:55:57.185Z,1.5
2022-12-04T10:56:58.921Z,1.49
2022-12-04T10:58:00.678Z,1.5
2022-12-04T10:59:02.384Z,1.51
2022-12-04T11:00:04.131Z,1.52
2022-12-04T11:01:05.838Z,1.53
2022-12-04T11:02:07.639Z,1.55
2022-12-04T11:03:09.385Z,1.53
2022-12-04T11:04:11.042Z,1.54
2022-12-04T11:05:12.791Z,1.55
2022-12-04T11:06:14.673Z,1.56
2022-12-04T11:07:16.258Z,1.58
2022-12-04T11:08:19.944Z,1.57
2022-12-04T11:09:19.721Z,1.58
2022-12-04T11:10:21.440Z,1.6
2022-12-04T11:11:23.211Z,1.6
2022-12-04T11:12:24.915Z,1.62
2022-12-04T11:13:26.804Z,1.63
2022-12-04T11:14:28.391Z,1.63
2022-12-04T11:15:30.110Z,1.66
2022-12-04T11:16:31.938Z,1.67
2022-12-04T11:17:33.588Z,1.69
2022-12-04T11:18:35.321Z,1.69
2022-12-04T11:19:37.071Z,1.71
2022-12-04T11:20:42.832Z,1.71
2022-12-04T11:21:40.502Z,1.73
2022-12-04T11:22:42.241Z,1.71
2022-12-04T11:23:43.962Z,1.71
2022-12-04T11:24:45.721Z,1.73
2022-12-04T11:25:47.449Z,1.73
2022-12-04T11:26:49.160Z,1.75
2022-12-04T11:27:50.920Z,1.76
2022-12-04T11:28:52.644Z,1.77
2022-12-04T11:29:54.888Z,1.78
2022-12-04T11:30:56.175Z,1.79
2022-12-04T11:32:01.453Z,1.8
2022-12-04T11:32:59.582Z,1.8
2022-12-04T11:34:01.317Z,1.82
2022-12-04T11:35:03.046Z,1.82
2022-12-04T11:36:04.781Z,1.83
2022-12-04T11:37:06.511Z,1.84
2022-12-04T11:38:08.269Z,1.85
2022-12-04T11:39:09.959Z,1.85
2022-12-04T11:40:11.712Z,1.86
2022-12-04T11:41:13.448Z,1.88
2022-12-04T11:42:15.177Z,1.87
2022-12-04T11:43:16.918Z,1.87
2022-12-04T11:44:18.668Z,1.88
2022-12-04T11:45:20.377Z,1.89
2022-12-04T11:46:22.131Z,1.89
2022-12-04T11:47:23.860Z,1.91
2022-12-04T11:48:25.593Z,1.92
2022-12-04T11:49:27.380Z,1.91
2022-12-04T11:50:29.041Z,1.92
2022-12-04T11:51:30.792Z,1.92
2022-12-04T11:52:32.518Z,1.92
2022-12-04T11:53:34.267Z,1.92
2022-12-04T11:54:36.016Z,1.93
2022-12-04T11:55:37.738Z,1.94
2022-12-04T11:56:39.451Z,1.93
2022-12-04T11:57:41.198Z,1.93
2022-12-04T11:58:42.932Z,1.93
2022-12-04T11:59:44.668Z,1.94
2022-12-04T12:00:46.393Z,1.94
2022-12-04T12:01:50.069Z,1.94
2022-12-04T12:02:50.054Z,1.93
2022-12-04T12:03:51.588Z,1.94
2022-12-04T12:04:53.350Z,1.95
2022-12-04T12:05:55.043Z,1.95
2022-12-04T12:06:56.806Z,1.96
2022-12-04T12:08:02.499Z,1.96
2022-12-04T12:09:00.262Z,1.98
2022-12-04T12:10:01.996Z,1.98
2022-12-04T12:11:03.708Z,1.98
2022-12-04T12:12:05.443Z,1.98
2022-12-04T12:13:07.181Z,1.99
2022-12-04T12:14:08.941Z,1.99
2022-12-04T12:15:10.664Z,1.99
2022-12-04T12:16:12.453Z,2
2022-12-04T12:17:14.132Z,1.99
2022-12-04T12:18:19.141Z,1.98
2022-12-04T12:19:17.607Z,1.96
2022-12-04T12:20:19.326Z,1.96
2022-12-04T12:21:21.117Z,1.98
2022-12-04T12:22:22.783Z,1.98
2022-12-04T12:23:24.526Z,1.98
2022-12-04T12:24:26.270Z,1.96
2022-12-04T12:25:27.994Z,1.96
2022-12-04T12:26:29.722Z,1.96
2022-12-04T12:27:31.451Z,1.95
2022-12-04T12:28:33.184Z,1.96
2022-12-04T12:29:34.937Z,1.96
2022-12-04T12:30:36.666Z,1.97
2022-12-04T12:31:38.437Z,1.96
2022-12-04T12:32:40.171Z,1.96
2022-12-04T12:33:41.850Z,1.95
2022-12-04T12:34:43.579Z,1.95
2022-12-04T12:35:45.330Z,1.94
2022-12-04T12:36:47.059Z,1.93
2022-12-04T12:37:48.799Z,1.93
2022-12-04T12:38:50.506Z,1.94
2022-12-04T12:39:52.272Z,1.93
2022-12-04T12:40:53.968Z,1.94
2022-12-04T12:41:55.725Z,1.94
2022-12-04T12:42:58.699Z,1.93
2022-12-04T12:43:59.185Z,1.93
2022-12-04T12:45:00.929Z,1.93
2022-12-04T12:46:02.762Z,1.91
2022-12-04T12:47:04.402Z,1.9
2022-12-04T12:48:06.135Z,1.91
2022-12-04T12:49:07.846Z,1.91
2022-12-04T12:50:09.611Z,1.91
2022-12-04T12:52:13.057Z,1.91
2022-12-04T12:53:14.804Z,1.9
2022-12-04T12:54:16.525Z,1.88
2022-12-04T12:55:18.278Z,1.9
2022-12-04T12:56:19.970Z,1.9
2022-12-04T12:57:21.714Z,1.9
2022-12-04T12:58:23.480Z,1.89
2022-12-04T12:59:25.195Z,1.88
2022-12-04T13:00:26.955Z,1.87
2022-12-04T13:01:28.663Z,1.86
2022-12-04T13:02:30.429Z,1.86
2022-12-04T13:03:32.128Z,1.86
2022-12-04T13:04:33.867Z,1.86
2022-12-04T13:05:35.585Z,1.86
2022-12-04T13:06:37.322Z,1.87
2022-12-04T13:07:39.106Z,1.85
2022-12-04T13:08:43.587Z,1.85
2022-12-04T13:09:42.520Z,1.84
2022-12-04T13:10:44.265Z,1.84
2022-12-04T13:11:45.999Z,1.85
2022-12-04T13:12:47.702Z,1.85
2022-12-04T13:13:49.433Z,1.85
2022-12-04T13:14:51.174Z,1.84
2022-12-04T13:15:52.910Z,1.84
2022-12-04T13:16:54.761Z,1.83
2022-12-04T13:17:56.359Z,1.83
2022-12-04T13:18:58.104Z,1.83
2022-12-04T13:19:59.945Z,1.83
2022-12-04T13:21:01.581Z,1.83
2022-12-04T13:22:04.638Z,1.84
2022-12-04T13:23:05.029Z,1.84
2022-12-04T13:24:06.760Z,1.84
2022-12-04T13:25:08.503Z,1.83
2022-12-04T13:26:10.230Z,1.84
2022-12-04T13:27:12.008Z,1.84
2022-12-04T13:28:13.686Z,1.84
2022-12-04T13:29:15.421Z,1.83
2022-12-04T13:30:17.161Z,1.83
2022-12-04T13:31:18.973Z,1.82
2022-12-04T13:32:24.019Z,1.82
2022-12-04T13:33:22.393Z,1.82
2022-12-04T13:34:24.097Z,1.83
2022-12-04T13:35:25.840Z,1.83
2022-12-04T13:36:27.560Z,1.83
2022-12-04T13:37:29.363Z,1.82
2022-12-04T13:38:31.034Z,1.82
2022-12-04T13:39:32.794Z,1.82
2022-12-04T13:40:34.504Z,1.83
2022-12-04T13:41:36.234Z,1.83
2022-12-04T13:42:37.978Z,1.84
2022-12-04T13:43:39.718Z,1.84
2022-12-04T13:44:41.442Z,1.84
2022-12-04T13:45:43.233Z,1.84
2022-12-04T13:46:44.907Z,1.85
2022-12-04T13:47:46.643Z,1.85
2022-12-04T13:48:48.408Z,1.86
2022-12-04T13:49:50.103Z,1.86